sensor_id;sensor_type;location;lat;lon;timestamp;temperature;humidity
851;DHT22;412;51.400;7.480;2023-05-19T00:01:10;13.20;98.40
851;DHT22;412;51.400;7.480;2023-05-19T00:03:42;13.20;98.40
851;DHT22;412;51.400;7.480;2023-05-19T00:06:13;13.20;98.20
851;DHT22;412;51.400;7.480;2023-05-19T00:08:39;13.10;98.50
851;DHT22;412;51.400;7.480;2023-05-19T00:11:05;13.10;98.60
851;DHT22;412;51.400;7.480;2023-05-19T00:13:31;13.00;98.80
851;DHT22;412;51.400;7.480;2023-05-19T00:15:57;13.00;99.00
851;DHT22;412;51.400;7.480;2023-05-19T00:18:23;13.00;99.10
851;DHT22;412;51.400;7.480;2023-05-19T00:20:49;12.90;99.40
851;DHT22;412;51.400;7.480;2023-05-19T00:23:16;12.90;99.60
851;DHT22;412;51.400;7.480;2023-05-19T00:25:42;12.90;99.90
851;DHT22;412;51.400;7.480;2023-05-19T00:28:08;12.80;99.90
851;DHT22;412;51.400;7.480;2023-05-19T00:30:33;12.90;99.90
851;DHT22;412;51.400;7.480;2023-05-19T00:32:59;12.80;99.90
851;DHT22;412;51.400;7.480;2023-05-19T00:35:25;12.80;99.90
851;DHT22;412;51.400;7.480;2023-05-19T00:37:51;12.80;99.90
851;DHT22;412;51.400;7.480;2023-05-19T00:40:16;12.80;99.90
851;DHT22;412;51.400;7.480;2023-05-19T00:42:42;12.80;99.90
851;DHT22;412;51.400;7.480;2023-05-19T00:45:08;12.80;99.90
851;DHT22;412;51.400;7.480;2023-05-19T00:47:34;12.70;99.90
851;DHT22;412;51.400;7.480;2023-05-19T00:50:00;12.70;99.90
851;DHT22;412;51.400;7.480;2023-05-19T00:52:26;12.50;99.90
851;DHT22;412;51.400;7.480;2023-05-19T00:54:52;12.40;99.90
851;DHT22;412;51.400;7.480;2023-05-19T00:57:20;12.40;99.90
851;DHT22;412;51.400;7.480;2023-05-19T00:59:47;12.30;99.90
851;DHT22;412;51.400;7.480;2023-05-19T01:02:13;12.20;99.90
851;DHT22;412;51.400;7.480;2023-05-19T01:04:39;12.00;99.90
851;DHT22;412;51.400;7.480;2023-05-19T01:07:06;12.00;99.90
851;DHT22;412;51.400;7.480;2023-05-19T01:09:32;12.00;99.90
851;DHT22;412;51.400;7.480;2023-05-19T01:11:59;12.00;99.90
851;DHT22;412;51.400;7.480;2023-05-19T01:14:27;11.80;99.90
851;DHT22;412;51.400;7.480;2023-05-19T01:17:06;11.70;99.90
851;DHT22;412;51.400;7.480;2023-05-19T01:22:31;11.50;99.90
851;DHT22;412;51.400;7.480;2023-05-19T01:30:42;11.30;99.90
851;DHT22;412;51.400;7.480;2023-05-19T01:33:11;11.40;99.90
851;DHT22;412;51.400;7.480;2023-05-19T01:35:42;11.40;99.90
851;DHT22;412;51.400;7.480;2023-05-19T01:38:09;11.50;99.90
851;DHT22;412;51.400;7.480;2023-05-19T01:40:37;11.50;99.90
851;DHT22;412;51.400;7.480;2023-05-19T01:43:04;11.60;99.90
851;DHT22;412;51.400;7.480;2023-05-19T01:45:32;11.60;99.90
851;DHT22;412;51.400;7.480;2023-05-19T01:48:00;11.60;99.90
851;DHT22;412;51.400;7.480;2023-05-19T01:50:27;11.60;99.90
851;DHT22;412;51.400;7.480;2023-05-19T01:52:54;11.60;99.90
851;DHT22;412;51.400;7.480;2023-05-19T01:55:20;11.60;99.90
851;DHT22;412;51.400;7.480;2023-05-19T02:01:10;11.40;99.90
851;DHT22;412;51.400;7.480;2023-05-19T02:09:52;11.30;99.90
851;DHT22;412;51.400;7.480;2023-05-19T02:15:04;11.40;99.90
851;DHT22;412;51.400;7.480;2023-05-19T02:17:32;11.40;99.90
851;DHT22;412;51.400;7.480;2023-05-19T02:20:01;11.40;99.90
851;DHT22;412;51.400;7.480;2023-05-19T02:22:29;11.40;99.90
851;DHT22;412;51.400;7.480;2023-05-19T02:24:55;11.30;99.90
851;DHT22;412;51.400;7.480;2023-05-19T02:27:22;11.30;99.90
851;DHT22;412;51.400;7.480;2023-05-19T02:29:48;11.30;99.90
851;DHT22;412;51.400;7.480;2023-05-19T02:32:14;11.30;99.90
851;DHT22;412;51.400;7.480;2023-05-19T02:34:40;11.20;99.90
851;DHT22;412;51.400;7.480;2023-05-19T02:37:13;11.20;99.90
851;DHT22;412;51.400;7.480;2023-05-19T02:39:40;11.20;99.90
851;DHT22;412;51.400;7.480;2023-05-19T02:42:06;11.20;99.90
851;DHT22;412;51.400;7.480;2023-05-19T02:44:32;11.10;99.90
851;DHT22;412;51.400;7.480;2023-05-19T02:46:57;11.10;99.90
851;DHT22;412;51.400;7.480;2023-05-19T02:49:23;11.10;99.90
851;DHT22;412;51.400;7.480;2023-05-19T02:51:49;11.10;99.90
851;DHT22;412;51.400;7.480;2023-05-19T02:54:15;11.00;99.90
851;DHT22;412;51.400;7.480;2023-05-19T02:56:40;11.00;99.90
851;DHT22;412;51.400;7.480;2023-05-19T02:59:06;11.00;99.90
851;DHT22;412;51.400;7.480;2023-05-19T03:01:32;11.00;99.90
851;DHT22;412;51.400;7.480;2023-05-19T03:03:58;10.90;99.90
851;DHT22;412;51.400;7.480;2023-05-19T03:06:23;10.90;99.90
851;DHT22;412;51.400;7.480;2023-05-19T03:08:49;10.90;99.90
851;DHT22;412;51.400;7.480;2023-05-19T03:11:16;10.90;99.90
851;DHT22;412;51.400;7.480;2023-05-19T03:13:41;10.80;99.90
851;DHT22;412;51.400;7.480;2023-05-19T03:16:09;10.80;99.90
851;DHT22;412;51.400;7.480;2023-05-19T03:18:37;10.80;99.90
851;DHT22;412;51.400;7.480;2023-05-19T03:21:03;10.80;99.90
851;DHT22;412;51.400;7.480;2023-05-19T03:23:28;10.80;99.90
851;DHT22;412;51.400;7.480;2023-05-19T03:25:54;10.70;99.90
851;DHT22;412;51.400;7.480;2023-05-19T03:28:21;10.80;99.90
851;DHT22;412;51.400;7.480;2023-05-19T03:30:51;10.70;99.90
851;DHT22;412;51.400;7.480;2023-05-19T03:33:17;10.70;99.90
851;DHT22;412;51.400;7.480;2023-05-19T03:35:43;10.70;99.90
851;DHT22;412;51.400;7.480;2023-05-19T03:38:09;10.70;99.90
851;DHT22;412;51.400;7.480;2023-05-19T03:40:35;10.70;99.90
851;DHT22;412;51.400;7.480;2023-05-19T03:43:00;10.70;99.90
851;DHT22;412;51.400;7.480;2023-05-19T03:45:27;10.70;99.90
851;DHT22;412;51.400;7.480;2023-05-19T03:47:52;10.70;99.90
851;DHT22;412;51.400;7.480;2023-05-19T03:50:18;10.70;99.90
851;DHT22;412;51.400;7.480;2023-05-19T03:52:44;10.70;99.90
851;DHT22;412;51.400;7.480;2023-05-19T03:55:11;10.70;99.90
851;DHT22;412;51.400;7.480;2023-05-19T03:57:39;10.60;99.90
851;DHT22;412;51.400;7.480;2023-05-19T04:00:06;10.60;99.90
851;DHT22;412;51.400;7.480;2023-05-19T04:02:32;10.60;99.90
851;DHT22;412;51.400;7.480;2023-05-19T04:04:58;10.60;99.90
851;DHT22;412;51.400;7.480;2023-05-19T04:07:24;10.60;99.90
851;DHT22;412;51.400;7.480;2023-05-19T04:09:50;10.60;99.90
851;DHT22;412;51.400;7.480;2023-05-19T04:12:15;10.60;99.90
851;DHT22;412;51.400;7.480;2023-05-19T04:14:41;10.70;99.90
851;DHT22;412;51.400;7.480;2023-05-19T04:17:07;10.70;99.90
851;DHT22;412;51.400;7.480;2023-05-19T04:19:35;10.70;99.90
851;DHT22;412;51.400;7.480;2023-05-19T04:22:01;10.60;99.90
851;DHT22;412;51.400;7.480;2023-05-19T04:24:26;10.60;99.90
851;DHT22;412;51.400;7.480;2023-05-19T04:26:52;10.60;99.90
851;DHT22;412;51.400;7.480;2023-05-19T04:29:18;10.60;99.90
851;DHT22;412;51.400;7.480;2023-05-19T04:31:44;10.70;99.90
851;DHT22;412;51.400;7.480;2023-05-19T04:34:10;10.70;99.90
851;DHT22;412;51.400;7.480;2023-05-19T04:36:36;10.70;99.90
851;DHT22;412;51.400;7.480;2023-05-19T04:39:02;10.60;99.90
851;DHT22;412;51.400;7.480;2023-05-19T04:41:32;10.50;99.90
851;DHT22;412;51.400;7.480;2023-05-19T04:44:01;10.30;99.90
851;DHT22;412;51.400;7.480;2023-05-19T04:46:26;10.10;99.90
851;DHT22;412;51.400;7.480;2023-05-19T04:48:54;10.00;99.90
851;DHT22;412;51.400;7.480;2023-05-19T04:51:22;10.10;99.90
851;DHT22;412;51.400;7.480;2023-05-19T04:53:55;10.20;99.90
851;DHT22;412;51.400;7.480;2023-05-19T04:56:21;10.30;99.90
851;DHT22;412;51.400;7.480;2023-05-19T04:58:47;10.40;99.90
851;DHT22;412;51.400;7.480;2023-05-19T05:01:17;10.50;99.90
851;DHT22;412;51.400;7.480;2023-05-19T05:03:45;10.60;99.90
851;DHT22;412;51.400;7.480;2023-05-19T05:06:11;10.70;99.90
851;DHT22;412;51.400;7.480;2023-05-19T05:08:37;10.90;99.90
851;DHT22;412;51.400;7.480;2023-05-19T05:11:05;10.90;99.90
851;DHT22;412;51.400;7.480;2023-05-19T05:13:31;11.00;99.90
851;DHT22;412;51.400;7.480;2023-05-19T05:15:57;11.10;99.90
851;DHT22;412;51.400;7.480;2023-05-19T05:18:24;11.20;99.90
851;DHT22;412;51.400;7.480;2023-05-19T05:20:50;11.30;99.90
851;DHT22;412;51.400;7.480;2023-05-19T05:23:16;11.40;99.90
851;DHT22;412;51.400;7.480;2023-05-19T05:25:43;11.50;99.90
851;DHT22;412;51.400;7.480;2023-05-19T05:28:09;11.50;99.90
851;DHT22;412;51.400;7.480;2023-05-19T05:30:35;11.50;99.90
851;DHT22;412;51.400;7.480;2023-05-19T05:33:01;11.60;99.90
851;DHT22;412;51.400;7.480;2023-05-19T05:35:27;11.50;99.90
851;DHT22;412;51.400;7.480;2023-05-19T05:37:53;11.50;99.90
851;DHT22;412;51.400;7.480;2023-05-19T05:40:19;11.50;99.90
851;DHT22;412;51.400;7.480;2023-05-19T05:42:45;11.70;99.90
851;DHT22;412;51.400;7.480;2023-05-19T05:45:11;11.80;99.90
851;DHT22;412;51.400;7.480;2023-05-19T05:47:37;11.90;99.90
851;DHT22;412;51.400;7.480;2023-05-19T05:50:08;12.00;99.90
851;DHT22;412;51.400;7.480;2023-05-19T05:52:35;12.10;99.90
851;DHT22;412;51.400;7.480;2023-05-19T05:55:05;12.20;99.90
851;DHT22;412;51.400;7.480;2023-05-19T05:57:31;12.20;99.90
851;DHT22;412;51.400;7.480;2023-05-19T05:59:59;12.20;99.90
851;DHT22;412;51.400;7.480;2023-05-19T06:02:25;12.30;99.90
851;DHT22;412;51.400;7.480;2023-05-19T06:04:52;12.20;99.90
851;DHT22;412;51.400;7.480;2023-05-19T06:07:19;12.10;99.90
851;DHT22;412;51.400;7.480;2023-05-19T06:09:45;12.20;99.90
851;DHT22;412;51.400;7.480;2023-05-19T06:12:11;12.30;99.90
851;DHT22;412;51.400;7.480;2023-05-19T06:14:37;12.30;99.90
851;DHT22;412;51.400;7.480;2023-05-19T06:17:03;12.30;99.90
851;DHT22;412;51.400;7.480;2023-05-19T06:19:29;12.20;99.90
851;DHT22;412;51.400;7.480;2023-05-19T06:21:55;12.40;99.90
851;DHT22;412;51.400;7.480;2023-05-19T06:24:21;12.60;99.90
851;DHT22;412;51.400;7.480;2023-05-19T06:26:47;12.80;99.90
851;DHT22;412;51.400;7.480;2023-05-19T06:29:12;12.90;99.90
851;DHT22;412;51.400;7.480;2023-05-19T06:31:38;13.10;99.90
851;DHT22;412;51.400;7.480;2023-05-19T06:34:04;13.40;99.90
851;DHT22;412;51.400;7.480;2023-05-19T06:36:30;13.90;99.90
851;DHT22;412;51.400;7.480;2023-05-19T06:38:55;14.50;99.90
851;DHT22;412;51.400;7.480;2023-05-19T06:41:22;14.90;99.90
851;DHT22;412;51.400;7.480;2023-05-19T06:43:47;15.20;99.90
851;DHT22;412;51.400;7.480;2023-05-19T06:46:13;15.70;99.90
851;DHT22;412;51.400;7.480;2023-05-19T06:48:39;16.10;99.90
851;DHT22;412;51.400;7.480;2023-05-19T06:51:05;16.50;99.90
851;DHT22;412;51.400;7.480;2023-05-19T06:53:32;16.90;99.90
851;DHT22;412;51.400;7.480;2023-05-19T06:55:58;17.20;99.90
851;DHT22;412;51.400;7.480;2023-05-19T06:58:23;17.40;99.90
851;DHT22;412;51.400;7.480;2023-05-19T07:00:49;17.30;94.10
851;DHT22;412;51.400;7.480;2023-05-19T07:03:15;17.20;92.40
851;DHT22;412;51.400;7.480;2023-05-19T07:05:41;17.00;91.90
851;DHT22;412;51.400;7.480;2023-05-19T07:08:06;16.80;92.50
851;DHT22;412;51.400;7.480;2023-05-19T07:10:32;16.70;92.90
851;DHT22;412;51.400;7.480;2023-05-19T07:12:58;16.50;91.80
851;DHT22;412;51.400;7.480;2023-05-19T07:15:24;16.40;92.10
851;DHT22;412;51.400;7.480;2023-05-19T07:17:50;16.30;92.50
851;DHT22;412;51.400;7.480;2023-05-19T07:20:16;16.30;93.80
851;DHT22;412;51.400;7.480;2023-05-19T07:22:41;16.20;94.00
851;DHT22;412;51.400;7.480;2023-05-19T07:25:07;16.20;93.80
851;DHT22;412;51.400;7.480;2023-05-19T07:27:33;16.10;93.40
851;DHT22;412;51.400;7.480;2023-05-19T07:29:59;16.10;93.80
851;DHT22;412;51.400;7.480;2023-05-19T07:32:25;16.10;93.60
851;DHT22;412;51.400;7.480;2023-05-19T07:34:51;16.00;92.80
851;DHT22;412;51.400;7.480;2023-05-19T07:37:16;16.00;93.70
851;DHT22;412;51.400;7.480;2023-05-19T07:39:42;16.00;94.30
851;DHT22;412;51.400;7.480;2023-05-19T07:42:08;16.10;94.10
851;DHT22;412;51.400;7.480;2023-05-19T07:44:34;16.20;95.00
851;DHT22;412;51.400;7.480;2023-05-19T07:47:00;16.40;94.20
851;DHT22;412;51.400;7.480;2023-05-19T07:49:26;16.50;93.00
851;DHT22;412;51.400;7.480;2023-05-19T07:51:52;16.60;93.00
851;DHT22;412;51.400;7.480;2023-05-19T07:54:18;16.60;91.80
851;DHT22;412;51.400;7.480;2023-05-19T07:56:44;16.80;92.90
851;DHT22;412;51.400;7.480;2023-05-19T07:59:10;16.90;92.20
851;DHT22;412;51.400;7.480;2023-05-19T08:01:36;17.00;91.30
851;DHT22;412;51.400;7.480;2023-05-19T08:04:02;17.00;90.40
851;DHT22;412;51.400;7.480;2023-05-19T08:06:29;17.10;91.00
851;DHT22;412;51.400;7.480;2023-05-19T08:08:56;17.20;90.80
851;DHT22;412;51.400;7.480;2023-05-19T08:11:23;17.20;90.20
851;DHT22;412;51.400;7.480;2023-05-19T08:13:49;17.30;90.80
851;DHT22;412;51.400;7.480;2023-05-19T08:16:15;17.50;90.50
851;DHT22;412;51.400;7.480;2023-05-19T08:18:41;17.60;90.10
851;DHT22;412;51.400;7.480;2023-05-19T08:21:07;17.90;90.30
851;DHT22;412;51.400;7.480;2023-05-19T08:23:33;18.00;89.40
851;DHT22;412;51.400;7.480;2023-05-19T08:25:59;18.00;87.20
851;DHT22;412;51.400;7.480;2023-05-19T08:28:26;18.10;86.90
851;DHT22;412;51.400;7.480;2023-05-19T08:30:54;18.20;85.90
851;DHT22;412;51.400;7.480;2023-05-19T08:33:20;18.30;87.30
851;DHT22;412;51.400;7.480;2023-05-19T08:35:46;18.50;86.10
851;DHT22;412;51.400;7.480;2023-05-19T08:38:12;18.60;84.30
851;DHT22;412;51.400;7.480;2023-05-19T08:40:40;18.70;84.70
851;DHT22;412;51.400;7.480;2023-05-19T08:43:07;18.80;83.00
851;DHT22;412;51.400;7.480;2023-05-19T08:45:33;18.90;80.60
851;DHT22;412;51.400;7.480;2023-05-19T08:47:59;19.00;81.70
851;DHT22;412;51.400;7.480;2023-05-19T08:50:34;18.90;76.50
851;DHT22;412;51.400;7.480;2023-05-19T08:53:06;18.60;75.60
851;DHT22;412;51.400;7.480;2023-05-19T08:55:35;18.60;78.00
851;DHT22;412;51.400;7.480;2023-05-19T08:58:04;18.80;82.10
851;DHT22;412;51.400;7.480;2023-05-19T09:00:30;19.10;81.10
851;DHT22;412;51.400;7.480;2023-05-19T09:02:56;19.20;76.00
851;DHT22;412;51.400;7.480;2023-05-19T09:05:22;19.30;77.70
851;DHT22;412;51.400;7.480;2023-05-19T09:07:48;19.50;78.40
851;DHT22;412;51.400;7.480;2023-05-19T09:10:14;19.70;78.90
851;DHT22;412;51.400;7.480;2023-05-19T09:12:43;19.80;76.60
851;DHT22;412;51.400;7.480;2023-05-19T09:15:13;20.00;75.60
851;DHT22;412;51.400;7.480;2023-05-19T09:17:40;20.00;73.40
851;DHT22;412;51.400;7.480;2023-05-19T09:20:07;19.70;73.10
851;DHT22;412;51.400;7.480;2023-05-19T09:22:45;19.80;74.80
851;DHT22;412;51.400;7.480;2023-05-19T09:25:21;19.90;76.00
851;DHT22;412;51.400;7.480;2023-05-19T09:27:48;20.00;76.40
851;DHT22;412;51.400;7.480;2023-05-19T09:30:17;20.20;76.80
851;DHT22;412;51.400;7.480;2023-05-19T09:32:43;20.20;73.90
851;DHT22;412;51.400;7.480;2023-05-19T09:35:14;20.30;75.70
851;DHT22;412;51.400;7.480;2023-05-19T09:37:45;20.30;74.10
851;DHT22;412;51.400;7.480;2023-05-19T09:40:13;20.30;72.80
851;DHT22;412;51.400;7.480;2023-05-19T09:42:40;20.30;70.50
851;DHT22;412;51.400;7.480;2023-05-19T09:45:07;20.10;68.40
851;DHT22;412;51.400;7.480;2023-05-19T09:47:37;19.90;70.00
851;DHT22;412;51.400;7.480;2023-05-19T09:50:10;20.00;73.20
851;DHT22;412;51.400;7.480;2023-05-19T09:52:43;20.10;73.80
851;DHT22;412;51.400;7.480;2023-05-19T09:55:11;20.40;76.80
851;DHT22;412;51.400;7.480;2023-05-19T09:57:38;20.60;73.80
851;DHT22;412;51.400;7.480;2023-05-19T10:02:41;20.80;68.40
851;DHT22;412;51.400;7.480;2023-05-19T10:05:15;20.90;70.40
851;DHT22;412;51.400;7.480;2023-05-19T10:07:46;21.00;70.90
851;DHT22;412;51.400;7.480;2023-05-19T10:10:13;21.00;68.30
851;DHT22;412;51.400;7.480;2023-05-19T10:12:40;21.00;67.40
851;DHT22;412;51.400;7.480;2023-05-19T10:15:10;21.10;70.30
851;DHT22;412;51.400;7.480;2023-05-19T10:17:37;21.20;69.80
851;DHT22;412;51.400;7.480;2023-05-19T10:20:08;21.20;68.60
851;DHT22;412;51.400;7.480;2023-05-19T10:22:36;21.40;68.90
851;DHT22;412;51.400;7.480;2023-05-19T10:25:03;21.50;71.50
851;DHT22;412;51.400;7.480;2023-05-19T10:27:30;21.60;70.40
851;DHT22;412;51.400;7.480;2023-05-19T10:29:59;21.80;66.20
851;DHT22;412;51.400;7.480;2023-05-19T10:32:28;21.80;66.30
851;DHT22;412;51.400;7.480;2023-05-19T10:40:32;22.00;66.80
851;DHT22;412;51.400;7.480;2023-05-19T10:45:28;22.00;62.40
851;DHT22;412;51.400;7.480;2023-05-19T10:47:54;22.00;64.00
851;DHT22;412;51.400;7.480;2023-05-19T10:50:20;22.00;66.70
851;DHT22;412;51.400;7.480;2023-05-19T10:52:52;22.00;64.00
851;DHT22;412;51.400;7.480;2023-05-19T10:55:49;21.90;65.50
851;DHT22;412;51.400;7.480;2023-05-19T11:01:12;22.20;65.20
851;DHT22;412;51.400;7.480;2023-05-19T11:06:29;21.70;62.20
851;DHT22;412;51.400;7.480;2023-05-19T11:09:00;21.80;66.10
851;DHT22;412;51.400;7.480;2023-05-19T11:11:51;21.80;63.90
851;DHT22;412;51.400;7.480;2023-05-19T11:14:22;21.90;66.30
851;DHT22;412;51.400;7.480;2023-05-19T11:16:50;21.90;64.80
851;DHT22;412;51.400;7.480;2023-05-19T11:22:15;21.90;64.20
851;DHT22;412;51.400;7.480;2023-05-19T11:24:45;22.00;68.00
851;DHT22;412;51.400;7.480;2023-05-19T11:27:28;22.10;66.20
851;DHT22;412;51.400;7.480;2023-05-19T11:30:00;22.20;66.60
851;DHT22;412;51.400;7.480;2023-05-19T11:32:32;22.40;67.30
851;DHT22;412;51.400;7.480;2023-05-19T11:34:59;22.40;64.10
851;DHT22;412;51.400;7.480;2023-05-19T11:37:25;22.40;61.70
851;DHT22;412;51.400;7.480;2023-05-19T11:39:53;22.20;61.30
851;DHT22;412;51.400;7.480;2023-05-19T11:42:19;22.20;65.00
851;DHT22;412;51.400;7.480;2023-05-19T11:44:45;22.30;65.80
851;DHT22;412;51.400;7.480;2023-05-19T11:47:15;22.20;63.90
851;DHT22;412;51.400;7.480;2023-05-19T11:49:47;22.20;62.40
851;DHT22;412;51.400;7.480;2023-05-19T11:52:13;22.20;64.50
851;DHT22;412;51.400;7.480;2023-05-19T11:54:39;22.00;61.40
851;DHT22;412;51.400;7.480;2023-05-19T11:57:09;22.00;60.80
851;DHT22;412;51.400;7.480;2023-05-19T11:59:38;22.00;63.00
851;DHT22;412;51.400;7.480;2023-05-19T12:02:17;22.00;61.10
851;DHT22;412;51.400;7.480;2023-05-19T12:04:44;21.90;60.70
851;DHT22;412;51.400;7.480;2023-05-19T12:07:10;21.90;62.10
851;DHT22;412;51.400;7.480;2023-05-19T12:09:42;21.60;58.60
851;DHT22;412;51.400;7.480;2023-05-19T12:12:08;21.30;60.00
851;DHT22;412;51.400;7.480;2023-05-19T12:14:34;21.50;63.00
851;DHT22;412;51.400;7.480;2023-05-19T12:17:14;21.70;61.80
851;DHT22;412;51.400;7.480;2023-05-19T12:19:43;21.90;64.10
851;DHT22;412;51.400;7.480;2023-05-19T12:22:09;22.00;61.90
851;DHT22;412;51.400;7.480;2023-05-19T12:24:36;22.10;62.00
851;DHT22;412;51.400;7.480;2023-05-19T12:27:18;22.30;62.90
851;DHT22;412;51.400;7.480;2023-05-19T12:29:51;22.20;63.00
851;DHT22;412;51.400;7.480;2023-05-19T12:32:17;22.30;59.50
851;DHT22;412;51.400;7.480;2023-05-19T12:34:43;22.20;59.50
851;DHT22;412;51.400;7.480;2023-05-19T12:37:09;22.20;60.40
851;DHT22;412;51.400;7.480;2023-05-19T12:39:36;22.20;59.10
851;DHT22;412;51.400;7.480;2023-05-19T12:42:11;22.20;59.20
851;DHT22;412;51.400;7.480;2023-05-19T12:44:45;22.10;59.40
851;DHT22;412;51.400;7.480;2023-05-19T12:47:16;22.10;59.20
851;DHT22;412;51.400;7.480;2023-05-19T12:50:11;22.10;59.10
851;DHT22;412;51.400;7.480;2023-05-19T12:52:43;22.10;58.20
851;DHT22;412;51.400;7.480;2023-05-19T12:55:09;22.00;58.90
851;DHT22;412;51.400;7.480;2023-05-19T12:57:38;22.10;59.70
851;DHT22;412;51.400;7.480;2023-05-19T13:05:24;22.20;59.50
851;DHT22;412;51.400;7.480;2023-05-19T13:08:10;22.30;58.80
851;DHT22;412;51.400;7.480;2023-05-19T13:10:37;22.40;62.20
851;DHT22;412;51.400;7.480;2023-05-19T13:13:03;22.40;58.20
851;DHT22;412;51.400;7.480;2023-05-19T13:15:31;22.50;59.30
851;DHT22;412;51.400;7.480;2023-05-19T13:18:00;22.40;61.90
851;DHT22;412;51.400;7.480;2023-05-19T13:20:26;22.40;58.30
851;DHT22;412;51.400;7.480;2023-05-19T13:22:52;22.50;58.60
851;DHT22;412;51.400;7.480;2023-05-19T13:25:18;22.50;58.30
851;DHT22;412;51.400;7.480;2023-05-19T13:27:44;22.50;59.80
851;DHT22;412;51.400;7.480;2023-05-19T13:30:11;22.60;58.50
851;DHT22;412;51.400;7.480;2023-05-19T13:32:37;22.50;57.60
851;DHT22;412;51.400;7.480;2023-05-19T13:35:03;22.60;60.60
851;DHT22;412;51.400;7.480;2023-05-19T13:37:29;22.60;59.70
851;DHT22;412;51.400;7.480;2023-05-19T13:39:55;22.50;57.80
851;DHT22;412;51.400;7.480;2023-05-19T13:42:23;22.50;58.50
851;DHT22;412;51.400;7.480;2023-05-19T13:44:48;22.40;56.90
851;DHT22;412;51.400;7.480;2023-05-19T13:47:18;22.30;58.50
851;DHT22;412;51.400;7.480;2023-05-19T13:49:44;22.30;58.00
851;DHT22;412;51.400;7.480;2023-05-19T13:52:09;22.40;58.40
851;DHT22;412;51.400;7.480;2023-05-19T13:54:36;22.40;57.10
851;DHT22;412;51.400;7.480;2023-05-19T13:57:01;22.30;58.50
851;DHT22;412;51.400;7.480;2023-05-19T13:59:27;22.40;59.00
851;DHT22;412;51.400;7.480;2023-05-19T14:01:54;22.30;57.40
851;DHT22;412;51.400;7.480;2023-05-19T14:04:20;22.40;59.90
851;DHT22;412;51.400;7.480;2023-05-19T14:06:45;22.40;57.40
851;DHT22;412;51.400;7.480;2023-05-19T14:09:11;22.40;57.30
851;DHT22;412;51.400;7.480;2023-05-19T14:11:37;22.30;58.10
851;DHT22;412;51.400;7.480;2023-05-19T14:14:03;22.30;55.90
851;DHT22;412;51.400;7.480;2023-05-19T14:16:29;22.30;58.20
851;DHT22;412;51.400;7.480;2023-05-19T14:18:55;22.30;57.30
851;DHT22;412;51.400;7.480;2023-05-19T14:21:21;22.20;55.80
851;DHT22;412;51.400;7.480;2023-05-19T14:23:47;22.00;55.00
851;DHT22;412;51.400;7.480;2023-05-19T14:26:13;21.90;55.80
851;DHT22;412;51.400;7.480;2023-05-19T14:28:39;21.90;57.90
851;DHT22;412;51.400;7.480;2023-05-19T14:31:05;22.00;58.30
851;DHT22;412;51.400;7.480;2023-05-19T14:33:31;22.00;58.50
851;DHT22;412;51.400;7.480;2023-05-19T14:35:57;22.00;56.50
851;DHT22;412;51.400;7.480;2023-05-19T14:38:25;21.80;56.40
851;DHT22;412;51.400;7.480;2023-05-19T14:40:51;21.90;58.30
851;DHT22;412;51.400;7.480;2023-05-19T14:43:16;21.90;57.20
851;DHT22;412;51.400;7.480;2023-05-19T14:45:43;21.90;56.90
851;DHT22;412;51.400;7.480;2023-05-19T14:48:09;21.80;57.10
851;DHT22;412;51.400;7.480;2023-05-19T14:50:38;21.80;56.80
851;DHT22;412;51.400;7.480;2023-05-19T14:53:04;21.80;58.30
851;DHT22;412;51.400;7.480;2023-05-19T14:55:30;21.80;57.20
851;DHT22;412;51.400;7.480;2023-05-19T14:57:56;21.70;54.90
851;DHT22;412;51.400;7.480;2023-05-19T15:00:22;21.50;54.90
851;DHT22;412;51.400;7.480;2023-05-19T15:02:51;21.70;57.70
851;DHT22;412;51.400;7.480;2023-05-19T15:05:17;21.80;58.60
851;DHT22;412;51.400;7.480;2023-05-19T15:07:42;21.90;56.80
851;DHT22;412;51.400;7.480;2023-05-19T15:10:08;21.90;55.50
851;DHT22;412;51.400;7.480;2023-05-19T15:12:34;21.90;57.00
851;DHT22;412;51.400;7.480;2023-05-19T15:15:00;21.90;56.60
851;DHT22;412;51.400;7.480;2023-05-19T15:17:26;21.80;57.00
851;DHT22;412;51.400;7.480;2023-05-19T15:19:52;21.80;56.50
851;DHT22;412;51.400;7.480;2023-05-19T15:22:17;21.80;57.20
851;DHT22;412;51.400;7.480;2023-05-19T15:24:43;21.80;56.90
851;DHT22;412;51.400;7.480;2023-05-19T15:27:09;21.70;55.90
851;DHT22;412;51.400;7.480;2023-05-19T15:29:35;21.60;56.40
851;DHT22;412;51.400;7.480;2023-05-19T15:32:01;21.40;55.70
851;DHT22;412;51.400;7.480;2023-05-19T15:34:27;21.40;56.70
851;DHT22;412;51.400;7.480;2023-05-19T15:36:53;21.40;56.40
851;DHT22;412;51.400;7.480;2023-05-19T15:39:19;21.30;55.60
851;DHT22;412;51.400;7.480;2023-05-19T15:41:44;21.20;55.20
851;DHT22;412;51.400;7.480;2023-05-19T15:44:10;21.20;58.00
851;DHT22;412;51.400;7.480;2023-05-19T15:46:36;21.30;56.80
851;DHT22;412;51.400;7.480;2023-05-19T15:49:01;21.30;56.30
851;DHT22;412;51.400;7.480;2023-05-19T15:51:28;21.20;57.30
851;DHT22;412;51.400;7.480;2023-05-19T15:53:54;21.30;56.40
851;DHT22;412;51.400;7.480;2023-05-19T15:56:20;21.00;56.90
851;DHT22;412;51.400;7.480;2023-05-19T15:58:47;21.00;58.10
851;DHT22;412;51.400;7.480;2023-05-19T16:01:13;21.00;57.40
851;DHT22;412;51.400;7.480;2023-05-19T16:03:39;21.00;57.50
851;DHT22;412;51.400;7.480;2023-05-19T16:06:05;21.00;56.50
851;DHT22;412;51.400;7.480;2023-05-19T16:08:31;20.80;56.90
851;DHT22;412;51.400;7.480;2023-05-19T16:10:56;20.80;57.40
851;DHT22;412;51.400;7.480;2023-05-19T16:13:22;20.70;55.80
851;DHT22;412;51.400;7.480;2023-05-19T16:15:48;20.60;57.60
851;DHT22;412;51.400;7.480;2023-05-19T16:18:14;20.50;57.20
851;DHT22;412;51.400;7.480;2023-05-19T16:20:40;20.40;58.50
851;DHT22;412;51.400;7.480;2023-05-19T16:23:07;20.50;58.60
851;DHT22;412;51.400;7.480;2023-05-19T16:25:33;20.40;58.60
851;DHT22;412;51.400;7.480;2023-05-19T16:27:58;20.30;57.80
851;DHT22;412;51.400;7.480;2023-05-19T16:30:24;20.20;57.50
851;DHT22;412;51.400;7.480;2023-05-19T16:32:52;20.20;58.90
851;DHT22;412;51.400;7.480;2023-05-19T16:35:19;20.30;59.30
851;DHT22;412;51.400;7.480;2023-05-19T16:37:45;20.20;59.00
851;DHT22;412;51.400;7.480;2023-05-19T16:40:11;20.30;59.50
851;DHT22;412;51.400;7.480;2023-05-19T16:42:37;20.30;58.80
851;DHT22;412;51.400;7.480;2023-05-19T16:45:04;20.20;59.70
851;DHT22;412;51.400;7.480;2023-05-19T16:47:30;20.20;59.40
851;DHT22;412;51.400;7.480;2023-05-19T16:49:55;20.20;59.40
851;DHT22;412;51.400;7.480;2023-05-19T16:52:21;20.20;60.30
851;DHT22;412;51.400;7.480;2023-05-19T16:54:47;20.10;60.50
851;DHT22;412;51.400;7.480;2023-05-19T16:57:13;20.10;58.20
851;DHT22;412;51.400;7.480;2023-05-19T16:59:39;20.00;59.00
851;DHT22;412;51.400;7.480;2023-05-19T17:02:06;19.90;58.90
851;DHT22;412;51.400;7.480;2023-05-19T17:04:32;19.90;58.80
851;DHT22;412;51.400;7.480;2023-05-19T17:06:58;19.90;59.20
851;DHT22;412;51.400;7.480;2023-05-19T17:09:24;19.80;58.80
851;DHT22;412;51.400;7.480;2023-05-19T17:11:54;19.80;58.60
851;DHT22;412;51.400;7.480;2023-05-19T17:14:20;19.80;59.30
851;DHT22;412;51.400;7.480;2023-05-19T17:16:46;19.80;60.70
851;DHT22;412;51.400;7.480;2023-05-19T17:19:13;19.80;59.70